Time;durP1;ratioP1;P1;durP2;ratioP2;P2;SDS_P1;SDS_P2;PMS_P1;PMS_P2;Temp;Humidity;BMP_temperature;BMP_pressure;BME280_temperature;BME280_humidity;BME280_pressure;Samples;Min_cycle;Max_cycle;Signal;HPM_P1;HPM_P2
2022/10/24 00:02:16;;;;;;;6.78;2.95;;;;;;;;;;6248730;22;20418;-88
2022/10/24 00:04:42;;;;;;;7.65;2.80;;;;;;;;;;6265374;22;20108;-87
2022/10/24 00:07:09;;;;;;;16.83;4.13;;;;;;;;;;6247467;22;20023;-88
2022/10/24 00:09:53;;;;;;;7.40;2.65;;;;;;;;;;6329789;22;20015;-89
2022/10/24 00:12:20;;;;;;;9.00;3.20;;;;;;;;;;6302935;22;20092;-86
2022/10/24 00:14:49;;;;;;;6.25;2.60;;;;;;;;;;6302094;22;20054;-87
2022/10/24 00:17:18;;;;;;;9.38;3.03;;;;;;;;;;6277749;22;20019;-88
2022/10/24 00:19:44;;;;;;;6.78;2.60;;;;;;;;;;6276983;22;20050;-88
2022/10/24 00:22:10;;;;;;;6.05;2.65;;;;;;;;;;6303187;22;20022;-88
2022/10/24 00:24:36;;;;;;;9.13;2.60;;;;;;;;;;6248379;22;20140;-87
2022/10/24 00:27:12;;;;;;;10.10;2.85;;;;;;;;;;6331676;22;20015;-89
2022/10/24 00:29:50;;;;;;;6.82;2.55;;;;;;;;;;6276628;22;20022;-88
2022/10/24 00:32:16;;;;;;;6.25;2.28;;;;;;;;;;6305637;22;20029;-88
2022/10/24 00:34:42;;;;;;;7.97;2.40;;;;;;;;;;6303968;22;20022;-88
2022/10/24 00:37:30;;;;;;;6.97;2.40;;;;;;;;;;6304881;22;20052;-87
2022/10/24 00:39:59;;;;;;;4.55;2.25;;;;;;;;;;6304029;22;20018;-89
2022/10/24 00:42:37;;;;;;;4.30;1.77;;;;;;;;;;6305859;22;20021;-88
2022/10/24 00:45:28;;;;;;;5.10;2.20;;;;;;;;;;6303120;22;20056;-88
2022/10/24 00:48:13;;;;;;;3.38;1.58;;;;;;;;;;6279012;22;20478;-88
2022/10/24 00:50:39;;;;;;;8.90;2.17;;;;;;;;;;6302863;22;20844;-88
2022/10/24 00:53:05;;;;;;;6.57;2.42;;;;;;;;;;6254352;22;20015;-88
2022/10/24 00:55:31;;;;;;;7.47;2.35;;;;;;;;;;6279619;22;20093;-87
2022/10/24 00:58:08;;;;;;;5.57;2.40;;;;;;;;;;6252468;22;20046;-88
2022/10/24 01:00:34;;;;;;;8.48;2.05;;;;;;;;;;6304354;22;20026;-87
2022/10/24 01:03:12;;;;;;;9.15;2.47;;;;;;;;;;6305240;22;20026;-88
2022/10/24 01:05:57;;;;;;;10.50;2.00;;;;;;;;;;6279690;22;20582;-87
2022/10/24 01:08:26;;;;;;;7.78;1.90;;;;;;;;;;6308567;22;20022;-88
2022/10/24 01:11:17;;;;;;;5.30;1.95;;;;;;;;;;6334227;22;20023;-87
2022/10/24 01:13:43;;;;;;;4.10;1.92;;;;;;;;;;6281258;22;20351;-87
2022/10/24 01:16:16;;;;;;;4.45;1.80;;;;;;;;;;6280039;22;20104;-88
2022/10/24 01:18:45;;;;;;;8.32;2.60;;;;;;;;;;6281175;22;20018;-89
2022/10/24 01:21:11;;;;;;;6.93;2.10;;;;;;;;;;6279831;22;20022;-88
2022/10/24 01:23:56;;;;;;;5.53;1.77;;;;;;;;;;6280090;22;20092;-89
2022/10/24 01:26:46;;;;;;;10.27;2.38;;;;;;;;;;6330416;22;20459;-89
2022/10/24 01:29:34;;;;;;;7.95;2.00;;;;;;;;;;6280106;22;20351;-89
2022/10/24 01:35:07;;;;;;;11.40;2.38;;;;;;;;;;6333294;22;20030;-88
2022/10/24 01:38:04;;;;;;;8.35;2.15;;;;;;;;;;6303571;22;20065;-89
2022/10/24 01:41:01;;;;;;;10.45;2.58;;;;;;;;;;6280074;22;20607;-89
2022/10/24 01:43:47;;;;;;;10.30;2.30;;;;;;;;;;6277837;22;20023;-89
2022/10/24 01:46:21;;;;;;;8.95;2.13;;;;;;;;;;6305411;22;20069;-87
2022/10/24 01:49:05;;;;;;;11.30;2.22;;;;;;;;;;6332373;22;20021;-89
2022/10/24 01:51:41;;;;;;;6.05;2.15;;;;;;;;;;6279314;22;20022;-89
2022/10/24 01:54:14;;;;;;;4.55;1.90;;;;;;;;;;6278532;22;20065;-89
2022/10/24 01:56:52;;;;;;;8.07;1.92;;;;;;;;;;6304847;22;20015;-89
2022/10/24 01:59:27;;;;;;;7.35;2.28;;;;;;;;;;6279616;22;20015;-88
2022/10/24 02:01:55;;;;;;;8.02;2.00;;;;;;;;;;6277573;22;20088;-88
2022/10/24 02:04:32;;;;;;;6.80;2.30;;;;;;;;;;6277751;22;20063;-89
2022/10/24 02:07:13;;;;;;;;;;;;;;;;;;;;;
2022/10/24 02:10:10;;;;;;;4.22;2.03;;;;;;;;;;6334940;22;20491;-89
2022/10/24 02:12:57;;;;;;;;;;;;;;;;;;;;;
2022/10/24 02:16:17;;;;;;;4.53;2.00;;;;;;;;;;6332689;22;20098;-88
2022/10/24 02:18:48;;;;;;;6.80;2.72;;;;;;;;;;6277347;22;20371;-88
2022/10/24 02:21:28;;;;;;;7.35;2.50;;;;;;;;;;6280050;22;20018;-89
2022/10/24 02:27:06;;;;;;;9.45;2.25;;;;;;;;;;6333124;22;20080;-88
2022/10/24 02:29:57;;;;;;;7.78;2.03;;;;;;;;;;6260562;22;20419;-89
2022/10/24 02:32:44;;;;;;;6.93;2.30;;;;;;;;;;6258114;22;20033;-88
2022/10/24 02:35:24;;;;;;;8.93;2.50;;;;;;;;;;6270432;22;20023;-89
2022/10/24 02:37:52;;;;;;;6.97;2.80;;;;;;;;;;6269894;22;20015;-88
2022/10/24 02:40:22;;;;;;;7.38;2.00;;;;;;;;;;6246962;22;20033;-88
2022/10/24 02:42:57;;;;;;;7.78;2.40;;;;;;;;;;6271935;22;20015;-87
2022/10/24 02:45:34;;;;;;;6.97;2.72;;;;;;;;;;6270710;22;20483;-88
2022/10/24 02:48:27;;;;;;;10.00;2.85;;;;;;;;;;6300390;22;20717;-87
2022/10/24 02:50:59;;;;;;;6.32;2.10;;;;;;;;;;6272353;22;20019;-88
2022/10/24 02:53:47;;;;;;;13.15;2.90;;;;;;;;;;6271343;22;20221;-88
2022/10/24 02:56:32;;;;;;;8.70;2.50;;;;;;;;;;6244701;22;20030;-88
2022/10/24 02:58:59;;;;;;;6.20;2.50;;;;;;;;;;6271850;22;20027;-88
2022/10/24 03:01:28;;;;;;;10.40;3.15;;;;;;;;;;6245881;22;20031;-88
2022/10/24 03:04:27;;;;;;;10.05;2.53;;;;;;;;;;6220816;22;20026;-88
2022/10/24 03:06:53;;;;;;;7.15;2.70;;;;;;;;;;6274779;22;20363;-88
2022/10/24 03:09:20;;;;;;;11.40;2.63;;;;;;;;;;6249976;22;20023;-89
2022/10/24 03:11:52;;;;;;;9.55;3.03;;;;;;;;;;6302397;22;20418;-87
2022/10/24 03:14:21;;;;;;;7.22;2.50;;;;;;;;;;6274222;22;20030;-88
2022/10/24 03:17:05;;;;;;;6.35;2.83;;;;;;;;;;6302284;22;20022;-88
2022/10/24 03:19:41;;;;;;;10.43;3.00;;;;;;;;;;6249227;22;20080;-89
2022/10/24 03:22:16;;;;;;;10.57;3.83;;;;;;;;;;6274903;22;20042;-88
2022/10/24 03:24:45;;;;;;;12.48;3.50;;;;;;;;;;6270836;22;20037;-86
2022/10/24 03:27:47;;;;;;;9.48;2.95;;;;;;;;;;6276315;22;20019;-87
2022/10/24 03:30:16;;;;;;;10.35;3.00;;;;;;;;;;6295219;22;20022;-87
2022/10/24 03:32:52;;;;;;;;;;;;;;;;;;;;;
2022/10/24 03:35:40;;;;;;;9.55;3.05;;;;;;;;;;6301843;22;20014;-87
2022/10/24 03:38:09;;;;;;;7.50;2.72;;;;;;;;;;6278712;22;20099;-88
2022/10/24 03:40:35;;;;;;;9.45;3.05;;;;;;;;;;6327525;22;20019;-88
2022/10/24 03:43:05;;;;;;;7.57;2.50;;;;;;;;;;6251280;22;20018;-88
2022/10/24 03:48:17;;;;;;;10.35;2.58;;;;;;;;;;6219168;22;20030;-87
2022/10/24 03:50:59;;;;;;;11.43;2.75;;;;;;;;;;6277220;22;20113;-88
2022/10/24 03:53:40;;;;;;;9.15;2.47;;;;;;;;;;6332281;22;20466;-87
2022/10/24 03:56:22;;;;;;;7.80;2.20;;;;;;;;;;6277703;22;20097;-88
2022/10/24 03:59:06;;;;;;;10.40;2.67;;;;;;;;;;6279418;22;20026;-88
2022/10/24 04:01:47;;;;;;;7.50;2.63;;;;;;;;;;6253809;22;20014;-87
2022/10/24 04:04:31;;;;;;;6.50;2.40;;;;;;;;;;6281774;22;20435;-87
2022/10/24 04:07:10;;;;;;;11.35;2.67;;;;;;;;;;6310061;22;20455;-89
2022/10/24 04:09:39;;;;;;;7.05;2.80;;;;;;;;;;6278758;22;20040;-88
2022/10/24 04:12:17;;;;;;;7.13;2.55;;;;;;;;;;6275839;22;20721;-88
2022/10/24 04:14:43;;;;;;;10.40;2.85;;;;;;;;;;6252089;22;20071;-88
2022/10/24 04:17:27;;;;;;;8.07;2.28;;;;;;;;;;6332323;22;20018;-87
2022/10/24 04:20:12;;;;;;;6.25;2.00;;;;;;;;;;6334104;22;20151;-88
2022/10/24 04:22:46;;;;;;;8.65;2.38;;;;;;;;;;6278373;22;20465;-89
2022/10/24 04:25:54;;;;;;;10.50;3.30;;;;;;;;;;6163208;22;20048;-88
2022/10/24 04:28:20;;;;;;;5.78;2.05;;;;;;;;;;6264506;22;20015;-87
2022/10/24 04:30:46;;;;;;;6.68;2.58;;;;;;;;;;6217866;22;20016;-88
2022/10/24 04:33:12;;;;;;;12.70;3.03;;;;;;;;;;6267739;22;20020;-86
2022/10/24 04:35:56;;;;;;;8.10;2.38;;;;;;;;;;6241373;22;20019;-88
2022/10/24 04:38:22;;;;;;;10.52;2.55;;;;;;;;;;6239936;22;20103;-87
2022/10/24 04:41:00;;;;;;;6.43;2.65;;;;;;;;;;6240878;22;20383;-89
2022/10/24 04:43:40;;;;;;;9.75;2.60;;;;;;;;;;6239472;22;20534;-88
2022/10/24 04:46:10;;;;;;;9.05;2.60;;;;;;;;;;6241924;22;20043;-88
2022/10/24 04:48:36;;;;;;;7.38;2.65;;;;;;;;;;6242281;22;20449;-88
2022/10/24 04:51:02;;;;;;;12.15;2.50;;;;;;;;;;6240974;22;20019;-88
2022/10/24 04:53:40;;;;;;;6.75;2.75;;;;;;;;;;6216537;22;20139;-87
2022/10/24 04:56:12;;;;;;;8.40;2.50;;;;;;;;;;6294917;22;20026;-88
2022/10/24 04:58:53;;;;;;;11.35;3.97;;;;;;;;;;6288816;22;20023;-87
2022/10/24 05:01:26;;;;;;;5.57;2.25;;;;;;;;;;6291696;22;20019;-88
2022/10/24 05:03:52;;;;;;;7.88;2.65;;;;;;;;;;6301613;22;20026;-88
2022/10/24 05:06:18;;;;;;;8.35;2.70;;;;;;;;;;6332624;22;20015;-87
2022/10/24 05:08:44;;;;;;;10.13;2.78;;;;;;;;;;6278142;22;20034;-88
2022/10/24 05:11:11;;;;;;;8.77;3.10;;;;;;;;;;6305315;22;20093;-87
2022/10/24 05:13:37;;;;;;;7.57;2.22;;;;;;;;;;6277199;22;20022;-87
2022/10/24 05:16:13;;;;;;;6.15;2.30;;;;;;;;;;6305677;22;20015;-85
2022/10/24 05:18:39;;;;;;;8.20;2.40;;;;;;;;;;6302568;22;20954;-86
2022/10/24 05:21:05;;;;;;;9.57;2.22;;;;;;;;;;6304089;22;20347;-86
2022/10/24 05:23:31;;;;;;;9.02;2.65;;;;;;;;;;6330494;22;20091;-85
2022/10/24 05:25:57;;;;;;;5.53;2.30;;;;;;;;;;6304646;22;20026;-86
2022/10/24 05:28:23;;;;;;;8.73;2.67;;;;;;;;;;6330812;22;20482;-86
2022/10/24 05:30:49;;;;;;;9.63;2.33;;;;;;;;;;6305910;22;20025;-86
2022/10/24 05:33:25;;;;;;;11.55;2.30;;;;;;;;;;6330503;22;20019;-84
2022/10/24 05:35:51;;;;;;;7.05;2.30;;;;;;;;;;6330261;22;20019;-87
2022/10/24 05:38:23;;;;;;;5.57;2.13;;;;;;;;;;6329333;22;20102;-86
2022/10/24 05:40:52;;;;;;;5.90;2.10;;;;;;;;;;6331449;22;20127;-86
2022/10/24 05:43:18;;;;;;;5.22;1.65;;;;;;;;;;6325835;22;20481;-84
2022/10/24 05:45:49;;;;;;;6.18;2.20;;;;;;;;;;6331109;22;20271;-84
2022/10/24 05:48:18;;;;;;;5.77;1.80;;;;;;;;;;6181740;22;20024;-85
2022/10/24 05:50:44;;;;;;;8.68;1.85;;;;;;;;;;6234594;22;20020;-87
2022/10/24 05:53:11;;;;;;;8.35;2.15;;;;;;;;;;6230997;22;20024;-84
2022/10/24 05:55:38;;;;;;;9.15;1.98;;;;;;;;;;6231767;22;20024;-83
2022/10/24 05:58:04;;;;;;;5.03;1.77;;;;;;;;;;6230828;22;20027;-82
2022/10/24 06:00:32;;;;;;;6.93;2.33;;;;;;;;;;6233032;22;20022;-80
2022/10/24 06:02:58;;;;;;;4.55;1.73;;;;;;;;;;6231659;22;20016;-83
2022/10/24 06:05:25;;;;;;;3.50;1.75;;;;;;;;;;6234319;22;20051;-81
2022/10/24 06:07:51;;;;;;;6.45;1.98;;;;;;;;;;6185173;22;20723;-83
2022/10/24 06:10:17;;;;;;;10.27;2.15;;;;;;;;;;6234829;22;20087;-83
2022/10/24 06:12:43;;;;;;;7.45;1.85;;;;;;;;;;6236056;22;20079;-81
2022/10/24 06:15:10;;;;;;;9.82;1.67;;;;;;;;;;6235064;22;20016;-81
2022/10/24 06:17:36;;;;;;;10.35;2.40;;;;;;;;;;6237279;22;20031;-82
2022/10/24 06:20:02;;;;;;;11.82;2.22;;;;;;;;;;6234427;22;20142;-81
2022/10/24 06:22:28;;;;;;;7.95;2.75;;;;;;;;;;6210507;22;20028;-83
2022/10/24 06:24:55;;;;;;;7.75;1.70;;;;;;;;;;6252192;22;20059;-81
2022/10/24 06:27:21;;;;;;;3.28;1.67;;;;;;;;;;6331188;22;20022;-85
2022/10/24 06:29:47;;;;;;;9.45;2.28;;;;;;;;;;6301098;22;20026;-86
2022/10/24 06:32:13;;;;;;;8.02;1.85;;;;;;;;;;6326754;22;20033;-84
2022/10/24 06:34:39;;;;;;;6.32;1.60;;;;;;;;;;6328212;22;20018;-81
2022/10/24 06:37:05;;;;;;;12.98;3.05;;;;;;;;;;6328596;22;20015;-81
2022/10/24 06:39:31;;;;;;;7.47;1.75;;;;;;;;;;6329133;22;20094;-81
2022/10/24 06:41:57;;;;;;;4.35;1.45;;;;;;;;;;6328441;22;20366;-81
2022/10/24 06:44:23;;;;;;;5.10;2.35;;;;;;;;;;6304115;22;20022;-82
2022/10/24 06:46:49;;;;;;;10.95;1.55;;;;;;;;;;6330368;22;20447;-82
2022/10/24 06:49:16;;;;;;;6.10;1.65;;;;;;;;;;6330636;22;20089;-82
2022/10/24 06:51:42;;;;;;;5.50;1.67;;;;;;;;;;6331084;22;20076;-85
2022/10/24 06:54:08;;;;;;;8.38;1.80;;;;;;;;;;6329662;22;20101;-84
2022/10/24 06:56:35;;;;;;;10.35;1.67;;;;;;;;;;6331362;22;20042;-80
2022/10/24 06:59:01;;;;;;;6.25;1.77;;;;;;;;;;6329594;22;20026;-81
2022/10/24 07:01:27;;;;;;;8.85;1.60;;;;;;;;;;6331343;22;20421;-82
2022/10/24 07:03:54;;;;;;;14.45;1.98;;;;;;;;;;6330046;22;20022;-82
2022/10/24 07:06:21;;;;;;;7.63;2.05;;;;;;;;;;6331162;22;20026;-81
2022/10/24 07:08:48;;;;;;;37.33;3.67;;;;;;;;;;6331453;22;20447;-81
2022/10/24 07:11:14;;;;;;;5.65;1.50;;;;;;;;;;6278748;22;20696;-82
2022/10/24 07:13:40;;;;;;;6.63;1.23;;;;;;;;;;6332939;22;20470;-81
2022/10/24 07:16:07;;;;;;;6.70;1.27;;;;;;;;;;6331723;22;20022;-81
2022/10/24 07:18:33;;;;;;;5.10;1.55;;;;;;;;;;6333399;22;20015;-80
2022/10/24 07:21:04;;;;;;;3.67;1.45;;;;;;;;;;6303649;22;20447;-81
2022/10/24 07:23:30;;;;;;;5.15;1.70;;;;;;;;;;6334693;22;20065;-83
2022/10/24 07:26:00;;;;;;;4.70;1.55;;;;;;;;;;6343144;22;20023;-82
2022/10/24 07:28:28;;;;;;;6.97;1.40;;;;;;;;;;6340707;22;20010;-81
2022/10/24 07:30:55;;;;;;;4.05;1.52;;;;;;;;;;6332817;22;20015;-80
2022/10/24 07:33:21;;;;;;;7.25;1.75;;;;;;;;;;6331495;22;20474;-81
2022/10/24 07:35:47;;;;;;;7.15;1.60;;;;;;;;;;6332374;22;20467;-80
2022/10/24 07:38:13;;;;;;;7.72;1.92;;;;;;;;;;6330621;22;20823;-83
2022/10/24 07:40:39;;;;;;;5.22;1.77;;;;;;;;;;6333203;22;20023;-80
2022/10/24 07:43:05;;;;;;;6.85;1.70;;;;;;;;;;6302936;22;20090;-81
2022/10/24 07:45:31;;;;;;;6.07;1.52;;;;;;;;;;6333652;22;20093;-83
2022/10/24 07:47:58;;;;;;;8.30;1.50;;;;;;;;;;6303684;22;20023;-81
2022/10/24 07:50:25;;;;;;;8.57;2.03;;;;;;;;;;6332549;22;20025;-81
2022/10/24 07:52:51;;;;;;;9.82;2.10;;;;;;;;;;6331963;22;20447;-81
2022/10/24 07:55:17;;;;;;;5.35;1.70;;;;;;;;;;6330821;22;20015;-82
2022/10/24 07:57:43;;;;;;;6.13;1.63;;;;;;;;;;6332884;22;20475;-81
2022/10/24 08:00:10;;;;;;;11.15;3.97;;;;;;;;;;6331055;22;20011;-82
2022/10/24 08:02:36;;;;;;;6.10;1.60;;;;;;;;;;6332217;22;20022;-80
2022/10/24 08:05:02;;;;;;;7.40;1.67;;;;;;;;;;6331781;22;20021;-82
2022/10/24 08:07:28;;;;;;;7.47;2.50;;;;;;;;;;6332800;22;20455;-80
2022/10/24 08:09:55;;;;;;;5.70;1.50;;;;;;;;;;6330920;22;20022;-79
2022/10/24 08:12:21;;;;;;;5.75;1.67;;;;;;;;;;6328146;22;20443;-83
2022/10/24 08:14:47;;;;;;;9.75;1.48;;;;;;;;;;6303070;22;20394;-83
2022/10/24 08:17:13;;;;;;;4.20;1.50;;;;;;;;;;6328553;22;20098;-81
2022/10/24 08:19:40;;;;;;;8.20;1.40;;;;;;;;;;6329150;22;20042;-80
2022/10/24 08:22:07;;;;;;;11.30;2.22;;;;;;;;;;6327297;22;20015;-80
2022/10/24 08:24:34;;;;;;;6.35;1.83;;;;;;;;;;6303562;22;20025;-84
2022/10/24 08:27:00;;;;;;;8.25;1.77;;;;;;;;;;6329524;22;20019;-82
2022/10/24 08:29:26;;;;;;;5.20;1.10;;;;;;;;;;6328372;22;20051;-82
2022/10/24 08:31:53;;;;;;;5.45;1.55;;;;;;;;;;6329904;22;20023;-84
2022/10/24 08:34:19;;;;;;;8.07;2.47;;;;;;;;;;6339268;22;20080;-82
2022/10/24 08:36:46;;;;;;;5.00;1.58;;;;;;;;;;6345123;22;20018;-83
2022/10/24 08:39:12;;;;;;;7.65;1.83;;;;;;;;;;6312744;22;20072;-82
2022/10/24 08:41:42;;;;;;;7.50;1.38;;;;;;;;;;6306331;22;20098;-84
2022/10/24 08:44:23;;;;;;;9.82;1.48;;;;;;;;;;6330136;22;20019;-83
2022/10/24 08:47:08;;;;;;;6.50;1.70;;;;;;;;;;6302016;22;20019;-82
2022/10/24 08:49:38;;;;;;;6.18;1.60;;;;;;;;;;6301642;22;20079;-82
2022/10/24 08:52:24;;;;;;;12.25;1.27;;;;;;;;;;6326673;22;20022;-84
2022/10/24 08:54:51;;;;;;;15.38;1.55;;;;;;;;;;6239893;22;20019;-84
2022/10/24 08:57:20;;;;;;;11.98;1.70;;;;;;;;;;6300854;22;20400;-83
2022/10/24 08:59:46;;;;;;;5.47;1.40;;;;;;;;;;6329373;22;20023;-84
2022/10/24 09:02:19;;;;;;;5.43;1.55;;;;;;;;;;6331223;22;20023;-84
2022/10/24 09:04:48;;;;;;;6.30;1.33;;;;;;;;;;6327883;22;20025;-83
2022/10/24 09:07:19;;;;;;;3.63;1.10;;;;;;;;;;6332047;22;20431;-83
2022/10/24 09:09:47;;;;;;;9.90;1.90;;;;;;;;;;6329490;22;20019;-84
2022/10/24 09:12:14;;;;;;;7.68;1.50;;;;;;;;;;6331393;22;20029;-83
2022/10/24 09:14:41;;;;;;;7.35;1.35;;;;;;;;;;6330567;22;20017;-84
2022/10/24 09:17:16;;;;;;;10.05;1.65;;;;;;;;;;6331836;22;20022;-82
2022/10/24 09:19:45;;;;;;;9.80;1.45;;;;;;;;;;6332170;22;20113;-82
2022/10/24 09:22:12;;;;;;;8.27;1.52;;;;;;;;;;6301344;22;20363;-84
2022/10/24 09:24:39;;;;;;;6.80;1.90;;;;;;;;;;6331884;22;20446;-84
2022/10/24 09:27:17;;;;;;;7.82;1.70;;;;;;;;;;6329345;22;20025;-82
2022/10/24 09:29:43;;;;;;;5.25;1.48;;;;;;;;;;6305155;22;20474;-84
2022/10/24 09:32:14;;;;;;;8.05;1.73;;;;;;;;;;6329726;22;20458;-85
2022/10/24 09:34:41;;;;;;;13.10;2.22;;;;;;;;;;6331390;22;20050;-83
2022/10/24 09:37:07;;;;;;;5.68;1.55;;;;;;;;;;6303789;22;20473;-84
2022/10/24 09:39:33;;;;;;;7.13;1.60;;;;;;;;;;6329944;22;20348;-83
2022/10/24 09:42:00;;;;;;;6.80;1.55;;;;;;;;;;6278799;22;20422;-85
2022/10/24 09:44:39;;;;;;;8.65;2.13;;;;;;;;;;6302946;22;20102;-82
2022/10/24 09:47:08;;;;;;;3.55;1.17;;;;;;;;;;6332050;22;20050;-83
2022/10/24 09:49:40;;;;;;;9.65;1.88;;;;;;;;;;6330420;22;20098;-82
2022/10/24 09:52:20;;;;;;;8.35;1.60;;;;;;;;;;6302677;22;20023;-83
2022/10/24 09:54:47;;;;;;;7.25;1.65;;;;;;;;;;6303889;22;20033;-82
2022/10/24 09:57:15;;;;;;;5.88;1.20;;;;;;;;;;6301507;22;20111;-82
2022/10/24 09:59:45;;;;;;;8.95;1.27;;;;;;;;;;6303752;22;20029;-82
2022/10/24 10:02:19;;;;;;;10.07;2.42;;;;;;;;;;6328492;22;20014;-83
2022/10/24 10:04:46;;;;;;;10.68;1.63;;;;;;;;;;6331239;22;20027;-83
2022/10/24 10:07:24;;;;;;;9.32;1.30;;;;;;;;;;6302338;22;20018;-83
2022/10/24 10:09:53;;;;;;;8.18;1.63;;;;;;;;;;6276933;22;20038;-82
2022/10/24 10:12:27;;;;;;;8.68;1.42;;;;;;;;;;6331746;22;20098;-86
2022/10/24 10:14:54;;;;;;;12.48;2.90;;;;;;;;;;6332092;22;20023;-83
2022/10/24 10:17:25;;;;;;;5.30;1.42;;;;;;;;;;6331223;22;20018;-82
2022/10/24 10:19:52;;;;;;;3.60;1.13;;;;;;;;;;6327911;22;20342;-84
2022/10/24 10:22:22;;;;;;;7.40;1.70;;;;;;;;;;6278030;22;20018;-85
2022/10/24 10:24:48;;;;;;;3.80;1.27;;;;;;;;;;6302445;22;20343;-84
2022/10/24 10:27:41;;;;;;;5.40;1.40;;;;;;;;;;6276561;22;20022;-84
2022/10/24 10:30:16;;;;;;;5.38;1.60;;;;;;;;;;6326300;22;20023;-85
2022/10/24 10:32:46;;;;;;;7.50;1.38;;;;;;;;;;6329726;22;20015;-83
2022/10/24 10:35:27;;;;;;;7.80;1.30;;;;;;;;;;6330651;22;20019;-84
2022/10/24 10:38:02;;;;;;;3.97;1.23;;;;;;;;;;6328098;22;20479;-83
2022/10/24 10:40:39;;;;;;;5.50;1.70;;;;;;;;;;6328468;22;20025;-83
2022/10/24 10:43:24;;;;;;;4.35;1.25;;;;;;;;;;6328958;22;20439;-82
2022/10/24 10:45:57;;;;;;;5.47;1.35;;;;;;;;;;6330280;22;20023;-83
2022/10/24 10:48:31;;;;;;;4.00;1.10;;;;;;;;;;6331431;22;20019;-82
2022/10/24 10:51:08;;;;;;;7.55;2.08;;;;;;;;;;6328253;22;20023;-82
2022/10/24 10:53:42;;;;;;;9.15;3.10;;;;;;;;;;6331097;22;20019;-84
2022/10/24 10:56:20;;;;;;;7.85;1.50;;;;;;;;;;6302797;22;20023;-85
2022/10/24 10:59:05;;;;;;;7.18;2.22;;;;;;;;;;6329571;22;20325;-83
2022/10/24 11:01:31;;;;;;;5.85;1.70;;;;;;;;;;6340912;22;20067;-83
2022/10/24 11:04:17;;;;;;;4.63;1.48;;;;;;;;;;6342020;22;20023;-83
2022/10/24 11:06:52;;;;;;;8.45;2.92;;;;;;;;;;6281599;22;20023;-83
2022/10/24 11:09:27;;;;;;;10.32;4.10;;;;;;;;;;6331631;22;20023;-82
2022/10/24 11:11:59;;;;;;;8.82;2.15;;;;;;;;;;6329866;22;20019;-84
2022/10/24 11:14:26;;;;;;;6.00;1.55;;;;;;;;;;6331259;22;20026;-83
2022/10/24 11:16:54;;;;;;;6.53;1.67;;;;;;;;;;6301912;22;20026;-83
2022/10/24 11:19:27;;;;;;;9.40;1.83;;;;;;;;;;6331162;22;20018;-83
2022/10/24 11:21:55;;;;;;;5.22;1.58;;;;;;;;;;6328574;22;20056;-82
2022/10/24 11:24:22;;;;;;;6.88;1.73;;;;;;;;;;6302303;22;20015;-84
2022/10/24 11:26:58;;;;;;;9.70;2.38;;;;;;;;;;6329625;22;20015;-83
2022/10/24 11:29:36;;;;;;;4.97;1.48;;;;;;;;;;6301356;22;20427;-83
2022/10/24 11:32:06;;;;;;;5.95;1.40;;;;;;;;;;6329499;22;20057;-84
2022/10/24 11:34:35;;;;;;;3.30;1.35;;;;;;;;;;6274989;22;20079;-84
2022/10/24 11:37:14;;;;;;;9.65;1.30;;;;;;;;;;6329743;22;20113;-84
2022/10/24 11:39:46;;;;;;;6.43;1.50;;;;;;;;;;6326983;22;20159;-84
2022/10/24 11:42:18;;;;;;;14.52;1.67;;;;;;;;;;6329478;22;20025;-83
2022/10/24 11:45:04;;;;;;;9.73;2.35;;;;;;;;;;6330221;22;20328;-84
2022/10/24 11:47:37;;;;;;;6.78;1.55;;;;;;;;;;6274765;22;20023;-82
2022/10/24 11:50:03;;;;;;;8.25;1.42;;;;;;;;;;6303542;22;20359;-83
2022/10/24 11:52:40;;;;;;;5.32;1.50;;;;;;;;;;6278732;22;20022;-87
2022/10/24 11:55:11;;;;;;;7.45;1.20;;;;;;;;;;6280117;22;20019;-84
2022/10/24 11:57:38;;;;;;;11.75;2.30;;;;;;;;;;6331921;22;20026;-84
2022/10/24 12:00:14;;;;;;;10.50;2.47;;;;;;;;;;6333008;22;20021;-83
2022/10/24 12:02:49;;;;;;;4.80;1.10;;;;;;;;;;6280187;22;20018;-84
2022/10/24 12:05:26;;;;;;;9.38;1.60;;;;;;;;;;6277346;22;20558;-87
2022/10/24 12:07:55;;;;;;;2.97;1.02;;;;;;;;;;6333595;22;20026;-85
2022/10/24 12:10:33;;;;;;;2.42;0.80;;;;;;;;;;6330429;22;20015;-84
2022/10/24 12:13:18;;;;;;;3.22;1.25;;;;;;;;;;6332826;22;20053;-85
2022/10/24 12:16:04;;;;;;;6.63;1.70;;;;;;;;;;6303634;22;20080;-84
2022/10/24 12:18:36;;;;;;;6.28;1.27;;;;;;;;;;6267208;22;20029;-83
2022/10/24 12:21:04;;;;;;;7.38;1.30;;;;;;;;;;6331747;22;20057;-82
2022/10/24 12:23:30;;;;;;;6.07;1.10;;;;;;;;;;6330785;22;20015;-88
2022/10/24 12:26:17;;;;;;;5.03;1.00;;;;;;;;;;6304224;22;20347;-89
2022/10/24 12:28:52;;;;;;;6.60;1.33;;;;;;;;;;6303838;22;20301;-90
2022/10/24 12:31:20;;;;;;;5.90;1.50;;;;;;;;;;6302711;22;20026;-82
2022/10/24 12:34:06;;;;;;;9.45;1.40;;;;;;;;;;6332275;22;20025;-84
2022/10/24 12:36:51;;;;;;;8.30;1.50;;;;;;;;;;6301842;22;20453;-84
2022/10/24 12:39:28;;;;;;;9.43;2.08;;;;;;;;;;6331173;22;20549;-83
2022/10/24 12:41:55;;;;;;;9.57;1.40;;;;;;;;;;6304172;22;20386;-83
2022/10/24 12:44:33;;;;;;;6.72;1.35;;;;;;;;;;6280324;22;20029;-83
2022/10/24 12:47:00;;;;;;;10.18;1.50;;;;;;;;;;6312992;22;20434;-85
2022/10/24 12:49:28;;;;;;;3.17;1.20;;;;;;;;;;6307240;22;20015;-82
2022/10/24 12:52:01;;;;;;;6.93;1.50;;;;;;;;;;6309405;22;20335;-83
2022/10/24 12:54:40;;;;;;;5.55;1.45;;;;;;;;;;6335339;22;20025;-82
2022/10/24 12:57:07;;;;;;;4.63;1.23;;;;;;;;;;6336088;22;20015;-82
2022/10/24 12:59:33;;;;;;;6.28;1.30;;;;;;;;;;6308636;22;20110;-84
2022/10/24 13:02:15;;;;;;;6.22;1.23;;;;;;;;;;6333946;22;20011;-82
2022/10/24 13:04:41;;;;;;;6.15;1.45;;;;;;;;;;6333651;22;20462;-84
2022/10/24 13:07:17;;;;;;;6.78;2.03;;;;;;;;;;6332473;22;20050;-83
2022/10/24 13:09:43;;;;;;;8.48;1.83;;;;;;;;;;6307268;22;20080;-84
2022/10/24 13:12:29;;;;;;;5.40;1.27;;;;;;;;;;6331345;22;20091;-84
2022/10/24 13:14:59;;;;;;;8.77;1.30;;;;;;;;;;6282145;22;20266;-81
2022/10/24 13:17:37;;;;;;;3.25;1.27;;;;;;;;;;6333038;22;20451;-84
2022/10/24 13:20:15;;;;;;;7.72;1.33;;;;;;;;;;6334680;22;20096;-84
2022/10/24 13:22:42;;;;;;;4.20;1.10;;;;;;;;;;6281364;22;20022;-81
2022/10/24 13:25:32;;;;;;;5.47;0.90;;;;;;;;;;6307642;22;20339;-85
2022/10/24 13:28:18;;;;;;;3.03;0.90;;;;;;;;;;6310247;22;20520;-84
2022/10/24 13:31:05;;;;;;;6.30;1.02;;;;;;;;;;6340250;22;20333;-83
2022/10/24 13:33:31;;;;;;;3.20;1.25;;;;;;;;;;6340125;22;20019;-83
2022/10/24 13:36:17;;;;;;;4.72;1.27;;;;;;;;;;6327110;22;20086;-82
2022/10/24 13:38:46;;;;;;;7.70;1.42;;;;;;;;;;6307564;22;20063;-82
2022/10/24 13:41:32;;;;;;;5.45;1.13;;;;;;;;;;6339986;22;20026;-82
2022/10/24 13:44:05;;;;;;;3.08;0.70;;;;;;;;;;6339522;22;20022;-83
2022/10/24 13:46:37;;;;;;;5.72;1.10;;;;;;;;;;6342372;22;20090;-82
2022/10/24 13:49:04;;;;;;;3.58;1.27;;;;;;;;;;6341318;22;20072;-86
2022/10/24 13:51:42;;;;;;;5.78;1.23;;;;;;;;;;6342458;22;20026;-83
2022/10/24 13:54:28;;;;;;;6.05;1.45;;;;;;;;;;6340917;22;20077;-86
2022/10/24 13:56:54;;;;;;;8.82;1.33;;;;;;;;;;6333468;22;20554;-83
2022/10/24 13:59:27;;;;;;;9.38;1.50;;;;;;;;;;6336766;22;20025;-82
2022/10/24 14:01:58;;;;;;;4.82;1.10;;;;;;;;;;6311932;22;20102;-83
2022/10/24 14:04:25;;;;;;;3.47;1.00;;;;;;;;;;6311438;22;20033;-83
2022/10/24 14:06:51;;;;;;;5.22;0.90;;;;;;;;;;6336769;22;20018;-84
2022/10/24 14:09:41;;;;;;;10.15;1.88;;;;;;;;;;6291576;22;20447;-83
2022/10/24 14:12:26;;;;;;;6.40;1.35;;;;;;;;;;6322978;22;20029;-84
2022/10/24 14:14:57;;;;;;;6.35;1.08;;;;;;;;;;6294868;22;20294;-83
2022/10/24 14:17:27;;;;;;;9.63;1.30;;;;;;;;;;6319230;22;20018;-89
2022/10/24 14:20:12;;;;;;;5.50;1.08;;;;;;;;;;6321758;22;20065;-86
2022/10/24 14:22:39;;;;;;;6.25;1.20;;;;;;;;;;6319452;22;20022;-83
2022/10/24 14:25:06;;;;;;;6.13;1.42;;;;;;;;;;6341510;22;20015;-86
2022/10/24 14:27:34;;;;;;;4.70;1.10;;;;;;;;;;6348219;22;20009;-85
2022/10/24 14:30:01;;;;;;;7.53;1.70;;;;;;;;;;6346290;22;20026;-85
2022/10/24 14:32:42;;;;;;;7.05;0.95;;;;;;;;;;6345823;22;20003;-84
2022/10/24 14:35:11;;;;;;;4.72;1.10;;;;;;;;;;6319648;22;20048;-84
2022/10/24 14:37:38;;;;;;;6.15;1.13;;;;;;;;;;6324724;22;20376;-87
2022/10/24 14:40:04;;;;;;;7.40;1.20;;;;;;;;;;6321870;22;20068;-84
2022/10/24 14:43:02;;;;;;;8.27;1.23;;;;;;;;;;6328282;22;20010;-90
2022/10/24 14:45:35;;;;;;;5.68;1.27;;;;;;;;;;6315390;22;20320;-84
2022/10/24 14:48:15;;;;;;;6.13;1.25;;;;;;;;;;6316067;22;20018;-87
2022/10/24 14:50:45;;;;;;;11.48;1.58;;;;;;;;;;6342640;22;20010;-84
2022/10/24 14:53:25;;;;;;;7.50;1.27;;;;;;;;;;6334769;22;20023;-85
2022/10/24 14:55:52;;;;;;;7.88;1.83;;;;;;;;;;6306092;22;20786;-85
2022/10/24 14:58:22;;;;;;;9.80;1.50;;;;;;;;;;6311320;22;20023;-83
2022/10/24 15:01:07;;;;;;;5.13;1.00;;;;;;;;;;6309692;22;20023;-87
2022/10/24 15:03:33;;;;;;;8.48;1.48;;;;;;;;;;6310764;22;20026;-83
2022/10/24 15:06:11;;;;;;;5.55;1.35;;;;;;;;;;6314920;22;20015;-82
2022/10/24 15:08:59;;;;;;;6.95;1.55;;;;;;;;;;6301637;22;20023;-85
2022/10/24 15:11:28;;;;;;;3.38;1.15;;;;;;;;;;6310073;22;20027;-83
2022/10/24 15:14:10;;;;;;;4.50;1.67;;;;;;;;;;6307637;22;20068;-83
2022/10/24 15:16:40;;;;;;;4.68;1.45;;;;;;;;;;6313509;22;20028;-86
2022/10/24 15:19:12;;;;;;;7.07;1.30;;;;;;;;;;6303340;22;20352;-85
2022/10/24 15:21:39;;;;;;;6.32;1.50;;;;;;;;;;6298294;22;20019;-88
2022/10/24 15:24:12;;;;;;;6.25;2.15;;;;;;;;;;6300004;22;20015;-85
2022/10/24 15:26:41;;;;;;;7.72;1.55;;;;;;;;;;6300975;22;20090;-87